Terminal Aerodrome Forecast
Issued by NWS

Current Version | Previous Version | Text Only | Print | Product List | Glossary On
Versions: 1 2 3 4 5 6 7 8 9 10 11 12 13 14 15 16 17 18
000
FTUS46 KPDT 240500
TAFPSC
TAF
KPSC 240520Z 2406/2506 16005KT P6SM -RA OVC060
     FM240900 20007KT P6SM -RA BKN040 OVC060
     FM241400 21008G15KT P6SM -SHRA BKN050 OVC070
     FM241700 21010G20KT P6SM VCSH BKN050 OVC070
     FM242100 24015G25KT P6SM VCSH SCT060 BKN080=

USA.gov is the U.S. government's official web portal to all federal, state and local government web resources and services.